Time,TemperatureF,DewpointF,PressureIn,WindDirection,WindDirectionDegrees,WindSpeedMPH,WindSpeedGustMPH,Humidity,HourlyPrecipIn,Conditions,Clouds,dailyrainin,SoftwareType,DateUTC
2013-08-20 00:01:00,64.2,62.2,29.37,SE,142,0.0,0.0,93,0.00,,,0.00,meteohub,2013-08-20 04:01:00,
2013-08-20 00:02:00,64.2,62.2,29.37,SE,142,0.0,0.0,93,0.00,,,0.00,meteohub,2013-08-20 04:02:00,
2013-08-20 00:07:00,64.2,62.2,29.37,SE,142,0.0,0.0,93,0.00,,,0.00,meteohub,2013-08-20 04:07:00,
2013-08-20 00:11:00,64.2,62.4,29.37,SE,142,0.0,0.0,94,0.00,,,0.00,meteohub,2013-08-20 04:11:00,
2013-08-20 00:17:00,64.0,62.2,29.37,SE,142,0.0,0.0,94,0.00,,,0.00,meteohub,2013-08-20 04:17:00,
2013-08-20 00:22:00,64.0,62.2,29.37,SE,142,0.0,0.0,94,0.00,,,0.00,meteohub,2013-08-20 04:22:00,
2013-08-20 00:27:00,64.0,62.2,29.38,SE,142,0.0,0.0,94,0.00,,,0.00,meteohub,2013-08-20 04:27:00,
2013-08-20 00:32:00,64.0,62.2,29.37,SE,142,0.0,0.0,94,0.00,,,0.00,meteohub,2013-08-20 04:32:00,
2013-08-20 00:37:00,64.0,62.2,29.37,SE,142,0.0,0.0,94,0.00,,,0.00,meteohub,2013-08-20 04:37:00,
2013-08-20 00:42:00,64.0,62.2,29.37,SE,142,0.0,0.0,94,0.00,,,0.00,meteohub,2013-08-20 04:42:00,
2013-08-20 00:47:00,64.0,62.2,29.37,SE,142,0.0,0.0,94,0.00,,,0.00,meteohub,2013-08-20 04:47:00,
2013-08-20 00:52:00,64.0,62.2,29.37,SE,142,0.0,0.0,94,0.00,,,0.00,meteohub,2013-08-20 04:52:00,
2013-08-20 00:57:00,64.0,62.2,29.37,SE,142,0.0,0.0,94,0.00,,,0.00,meteohub,2013-08-20 04:57:00,
2013-08-20 01:02:00,63.9,62.1,29.37,SE,142,0.0,0.0,94,0.00,,,0.00,meteohub,2013-08-20 05:02:00,
2013-08-20 01:07:00,63.9,62.1,29.37,SE,142,0.0,0.0,94,0.00,,,0.00,meteohub,2013-08-20 05:07:00,
2013-08-20 01:12:00,63.9,62.1,29.37,SE,142,0.0,0.0,94,0.00,,,0.00,meteohub,2013-08-20 05:12:00,
2013-08-20 01:17:00,63.9,62.1,29.37,SE,142,0.0,0.0,94,0.00,,,0.00,meteohub,2013-08-20 05:17:00,
2013-08-20 01:22:00,63.7,61.9,29.37,SE,142,0.0,0.0,94,0.00,,,0.00,meteohub,2013-08-20 05:22:00,
2013-08-20 01:27:00,63.7,61.9,29.37,SE,142,0.0,0.0,94,0.00,,,0.00,meteohub,2013-08-20 05:27:00,
2013-08-20 01:32:00,63.5,61.7,29.36,SE,142,0.0,0.0,94,0.00,,,0.00,meteohub,2013-08-20 05:32:00,
2013-08-20 01:37:00,63.3,61.9,29.36,SE,142,0.0,0.0,95,0.00,,,0.00,meteohub,2013-08-20 05:37:00,
2013-08-20 01:42:00,63.3,61.5,29.36,SE,142,0.0,0.0,94,0.00,,,0.00,meteohub,2013-08-20 05:42:00,
2013-08-20 01:47:00,63.3,61.9,29.36,SE,142,0.0,0.0,95,0.00,,,0.00,meteohub,2013-08-20 05:47:00,
2013-08-20 01:52:00,63.3,61.9,29.36,SE,142,0.0,0.0,95,0.00,,,0.00,meteohub,2013-08-20 05:52:00,
2013-08-20 01:57:00,63.5,62.1,29.36,SE,142,0.0,0.0,95,0.00,,,0.00,meteohub,2013-08-20 05:57:00,
2013-08-20 02:02:00,63.5,62.1,29.36,SE,142,0.0,0.0,95,0.00,,,0.00,meteohub,2013-08-20 06:02:00,
2013-08-20 02:07:00,63.7,62.2,29.36,SE,142,0.0,0.0,95,0.00,,,0.00,meteohub,2013-08-20 06:07:00,
2013-08-20 02:12:00,63.5,62.1,29.36,SE,142,0.0,0.0,95,0.00,,,0.00,meteohub,2013-08-20 06:12:00,
2013-08-20 02:17:00,63.5,62.1,29.36,SE,142,0.0,0.0,95,0.00,,,0.00,meteohub,2013-08-20 06:17:00,
2013-08-20 02:22:00,63.5,62.1,29.36,SE,142,0.0,0.0,95,0.00,,,0.00,meteohub,2013-08-20 06:22:00,
2013-08-20 02:27:00,63.5,62.1,29.36,SE,142,0.0,0.0,95,0.00,,,0.00,meteohub,2013-08-20 06:27:00,
2013-08-20 02:32:00,63.5,62.1,29.36,SE,142,0.0,0.0,95,0.00,,,0.00,meteohub,2013-08-20 06:32:00,
2013-08-20 02:37:00,63.5,62.1,29.36,SE,142,0.0,0.0,95,0.00,,,0.00,meteohub,2013-08-20 06:37:00,
2013-08-20 02:42:00,63.5,62.1,29.36,SE,142,0.0,0.0,95,0.00,,,0.00,meteohub,2013-08-20 06:42:00,
2013-08-20 02:47:00,63.3,61.9,29.36,SE,142,0.0,0.0,95,0.00,,,0.00,meteohub,2013-08-20 06:47:00,
2013-08-20 02:52:00,63.3,61.9,29.36,SE,142,0.0,0.0,95,0.00,,,0.00,meteohub,2013-08-20 06:52:00,
2013-08-20 02:57:00,63.3,61.9,29.36,SE,142,0.0,0.0,95,0.00,,,0.00,meteohub,2013-08-20 06:57:00,
2013-08-20 03:02:00,63.1,61.7,29.36,SE,142,0.0,0.0,95,0.00,,,0.00,meteohub,2013-08-20 07:02:00,
2013-08-20 03:07:00,63.3,61.9,29.36,SE,142,0.0,0.0,95,0.00,,,0.00,meteohub,2013-08-20 07:07:00,
2013-08-20 03:12:00,63.1,61.7,29.36,SE,142,0.0,0.0,95,0.00,,,0.00,meteohub,2013-08-20 07:12:00,
2013-08-20 03:17:00,63.1,61.7,29.36,SE,142,0.0,0.0,95,0.00,,,0.00,meteohub,2013-08-20 07:17:00,
2013-08-20 03:22:00,63.1,61.7,29.36,SE,142,0.0,0.0,95,0.00,,,0.00,meteohub,2013-08-20 07:22:00,
2013-08-20 03:27:00,63.1,61.7,29.36,SE,142,0.0,0.0,95,0.00,,,0.00,meteohub,2013-08-20 07:27:00,
2013-08-20 03:32:00,63.0,61.5,29.36,SE,142,0.0,0.0,95,0.00,,,0.00,meteohub,2013-08-20 07:32:00,
2013-08-20 03:37:00,63.0,61.5,29.36,SE,142,0.0,0.0,95,0.00,,,0.00,meteohub,2013-08-20 07:37:00,
2013-08-20 03:42:00,63.0,61.5,29.36,SE,142,0.0,0.0,95,0.00,,,0.00,meteohub,2013-08-20 07:42:00,
2013-08-20 03:47:00,62.8,61.3,29.36,SE,142,0.0,0.0,95,0.00,,,0.00,meteohub,2013-08-20 07:47:00,
2013-08-20 03:52:00,62.8,61.3,29.36,SE,142,0.0,0.0,95,0.00,,,0.00,meteohub,2013-08-20 07:52:00,
2013-08-20 03:57:00,62.8,61.3,29.36,SE,142,0.0,0.0,95,0.00,,,0.00,meteohub,2013-08-20 07:57:00,
2013-08-20 04:02:00,62.6,61.2,29.36,SE,142,0.0,0.0,95,0.00,,,0.00,meteohub,2013-08-20 08:02:00,
2013-08-20 04:07:00,62.6,61.2,29.36,SE,142,0.0,0.0,95,0.00,,,0.00,meteohub,2013-08-20 08:07:00,
2013-08-20 04:12:00,62.8,61.3,29.36,SE,142,0.0,0.0,95,0.00,,,0.00,meteohub,2013-08-20 08:12:00,
2013-08-20 04:17:00,63.0,61.9,29.36,SE,142,0.0,0.0,96,0.00,,,0.00,meteohub,2013-08-20 08:17:00,
2013-08-20 04:22:00,63.0,61.9,29.36,SE,142,0.0,0.0,96,0.00,,,0.00,meteohub,2013-08-20 08:22:00,
2013-08-20 04:27:00,63.1,62.1,29.36,SE,142,0.0,0.0,96,0.00,,,0.00,meteohub,2013-08-20 08:27:00,
2013-08-20 04:32:00,63.3,62.2,29.36,SE,142,0.0,0.0,96,0.00,,,0.00,meteohub,2013-08-20 08:32:00,
2013-08-20 04:37:00,63.7,62.6,29.36,SE,142,0.0,0.0,96,0.00,,,0.00,meteohub,2013-08-20 08:37:00,
2013-08-20 04:42:00,63.9,62.8,29.36,SE,142,0.0,0.0,96,0.00,,,0.00,meteohub,2013-08-20 08:42:00,
2013-08-20 04:47:00,63.9,62.8,29.36,SE,142,0.0,0.0,96,0.00,,,0.00,meteohub,2013-08-20 08:47:00,
2013-08-20 04:52:00,64.0,63.0,29.36,SE,142,0.0,0.0,96,0.00,,,0.00,meteohub,2013-08-20 08:52:00,
2013-08-20 04:57:00,64.0,63.0,29.36,SE,142,0.0,0.0,96,0.00,,,0.00,meteohub,2013-08-20 08:57:00,
2013-08-20 05:02:00,64.0,63.0,29.37,SE,142,0.0,0.0,96,0.00,,,0.00,meteohub,2013-08-20 09:02:00,
2013-08-20 05:07:00,64.0,63.0,29.37,SE,142,0.0,0.0,96,0.00,,,0.00,meteohub,2013-08-20 09:07:00,
2013-08-20 05:12:00,64.0,63.0,29.37,SE,142,0.0,0.0,96,0.00,,,0.00,meteohub,2013-08-20 09:12:00,
2013-08-20 05:17:00,64.2,63.1,29.37,SE,142,0.0,0.0,96,0.00,,,0.00,meteohub,2013-08-20 09:17:00,
2013-08-20 05:22:00,64.2,63.1,29.37,SE,142,0.0,0.0,96,0.00,,,0.00,meteohub,2013-08-20 09:22:00,
2013-08-20 05:27:00,64.2,63.1,29.37,SE,142,0.0,0.0,96,0.00,,,0.00,meteohub,2013-08-20 09:27:00,
2013-08-20 05:32:00,64.2,63.1,29.37,SE,142,0.0,0.0,96,0.00,,,0.00,meteohub,2013-08-20 09:32:00,
2013-08-20 05:37:00,64.2,63.1,29.37,SE,142,0.0,0.0,96,0.00,,,0.00,meteohub,2013-08-20 09:37:00,
2013-08-20 05:42:00,64.2,63.1,29.37,SE,142,0.0,0.0,96,0.00,,,0.00,meteohub,2013-08-20 09:42:00,
2013-08-20 05:47:00,64.2,63.1,29.38,SE,142,0.0,0.0,96,0.00,,,0.00,meteohub,2013-08-20 09:47:00,
2013-08-20 05:52:00,64.2,63.1,29.38,SE,142,0.0,0.0,96,0.00,,,0.00,meteohub,2013-08-20 09:52:00,
2013-08-20 05:57:00,64.2,63.1,29.38,SE,142,0.0,0.0,96,0.00,,,0.00,meteohub,2013-08-20 09:57:00,
2013-08-20 06:02:00,64.2,63.1,29.38,SE,142,0.0,0.0,96,0.00,,,0.00,meteohub,2013-08-20 10:02:00,
2013-08-20 06:07:00,64.2,63.1,29.38,SE,142,0.0,0.0,96,0.00,,,0.00,meteohub,2013-08-20 10:07:00,
2013-08-20 06:12:00,64.2,63.1,29.39,SE,142,0.0,0.0,96,0.00,,,0.00,meteohub,2013-08-20 10:12:00,
2013-08-20 06:17:00,64.2,63.1,29.39,SE,142,0.0,0.0,96,0.00,,,0.00,meteohub,2013-08-20 10:17:00,
2013-08-20 06:22:00,64.2,63.1,29.39,SE,142,0.0,0.0,96,0.00,,,0.00,meteohub,2013-08-20 10:22:00,
2013-08-20 06:27:00,64.2,63.1,29.39,SE,142,0.0,0.0,96,0.00,,,0.00,meteohub,2013-08-20 10:27:00,
2013-08-20 06:32:00,64.4,63.3,29.39,SE,142,0.0,0.0,96,0.00,,,0.00,meteohub,2013-08-20 10:32:00,
2013-08-20 06:37:00,64.4,63.5,29.39,SE,142,0.0,0.0,97,0.00,,,0.00,meteohub,2013-08-20 10:37:00,
2013-08-20 06:42:00,64.4,63.3,29.39,SE,142,0.0,0.0,96,0.00,,,0.00,meteohub,2013-08-20 10:42:00,
2013-08-20 06:47:00,64.4,63.5,29.40,SE,142,0.0,0.0,97,0.00,,,0.00,meteohub,2013-08-20 10:47:00,
2013-08-20 06:52:00,64.4,63.5,29.40,SE,142,0.0,0.0,97,0.00,,,0.00,meteohub,2013-08-20 10:52:00,
2013-08-20 06:57:00,64.4,63.5,29.40,SE,142,0.0,0.0,97,0.00,,,0.00,meteohub,2013-08-20 10:57:00,
2013-08-20 07:02:00,64.4,63.5,29.40,SE,142,0.0,0.0,97,0.00,,,0.00,meteohub,2013-08-20 11:02:00,
2013-08-20 07:07:00,64.4,63.5,29.40,SE,142,0.0,0.0,97,0.00,,,0.00,meteohub,2013-08-20 11:07:00,
2013-08-20 07:12:00,64.4,63.5,29.40,SE,142,0.0,0.0,97,0.00,,,0.00,meteohub,2013-08-20 11:12:00,
2013-08-20 07:17:00,64.4,63.5,29.40,SE,142,0.0,0.0,97,0.00,,,0.00,meteohub,2013-08-20 11:17:00,
2013-08-20 07:22:00,64.6,63.7,29.40,SE,142,0.0,0.0,97,0.00,,,0.00,meteohub,2013-08-20 11:22:00,
2013-08-20 07:27:00,64.6,63.7,29.41,SE,142,0.0,0.0,97,0.00,,,0.00,meteohub,2013-08-20 11:27:00,
2013-08-20 07:32:00,64.6,63.7,29.41,SE,142,0.0,0.0,97,0.00,,,0.00,meteohub,2013-08-20 11:32:00,
2013-08-20 07:37:00,64.6,63.7,29.41,SE,142,0.0,0.0,97,0.01,,,0.01,meteohub,2013-08-20 11:37:00,
2013-08-20 07:42:00,64.8,63.9,29.41,SE,142,0.0,0.0,97,0.01,,,0.01,meteohub,2013-08-20 11:42:00,
2013-08-20 07:47:00,64.8,63.9,29.41,SE,142,0.0,0.0,97,0.01,,,0.01,meteohub,2013-08-20 11:47:00,
2013-08-20 07:52:00,64.8,63.9,29.41,SE,142,0.0,0.0,97,0.01,,,0.01,meteohub,2013-08-20 11:52:00,
2013-08-20 07:57:00,64.9,64.0,29.42,SE,142,0.0,0.0,97,0.01,,,0.01,meteohub,2013-08-20 11:57:00,
2013-08-20 08:02:00,65.1,64.2,29.42,SE,142,0.0,0.0,97,0.01,,,0.01,meteohub,2013-08-20 12:02:00,
2013-08-20 08:07:00,65.3,64.4,29.42,SE,142,0.0,0.0,97,0.01,,,0.01,meteohub,2013-08-20 12:07:00,
2013-08-20 08:12:00,65.5,64.6,29.42,SE,142,0.0,0.0,97,0.01,,,0.01,meteohub,2013-08-20 12:12:00,
2013-08-20 08:17:00,65.7,64.8,29.42,SE,142,0.0,0.0,97,0.01,,,0.01,meteohub,2013-08-20 12:17:00,
2013-08-20 08:22:00,65.7,64.8,29.42,SE,142,0.0,0.0,97,0.01,,,0.01,meteohub,2013-08-20 12:22:00,
2013-08-20 08:27:00,65.8,64.9,29.42,SE,142,0.0,0.0,97,0.01,,,0.01,meteohub,2013-08-20 12:27:00,
2013-08-20 08:32:00,66.0,65.1,29.42,SE,142,0.0,0.0,97,0.01,,,0.01,meteohub,2013-08-20 12:32:00,
2013-08-20 08:37:00,66.2,65.3,29.42,SE,142,0.0,0.0,97,0.00,,,0.01,meteohub,2013-08-20 12:37:00,
2013-08-20 08:42:00,66.6,65.7,29.42,SE,142,0.0,0.0,97,0.00,,,0.01,meteohub,2013-08-20 12:42:00,
2013-08-20 08:47:00,66.6,65.7,29.42,SE,142,0.0,0.0,97,0.00,,,0.01,meteohub,2013-08-20 12:47:00,
2013-08-20 08:52:00,66.6,65.7,29.42,SE,142,0.0,0.0,97,0.00,,,0.01,meteohub,2013-08-20 12:52:00,
2013-08-20 08:57:00,66.7,65.8,29.43,SE,142,0.0,0.0,97,0.00,,,0.01,meteohub,2013-08-20 12:57:00,
2013-08-20 09:02:00,66.9,66.0,29.43,SE,142,0.0,0.0,97,0.00,,,0.01,meteohub,2013-08-20 13:02:00,
2013-08-20 09:07:00,67.3,66.4,29.43,SSE,157,0.0,0.0,97,0.00,,,0.01,meteohub,2013-08-20 13:07:00,
2013-08-20 09:12:00,67.5,66.6,29.43,SSE,157,0.0,0.0,97,0.00,,,0.01,meteohub,2013-08-20 13:12:00,
2013-08-20 09:17:00,67.6,66.7,29.43,SSE,157,0.0,0.0,97,0.00,,,0.01,meteohub,2013-08-20 13:17:00,
2013-08-20 09:22:00,67.6,66.7,29.43,SSE,157,0.0,0.0,97,0.00,,,0.01,meteohub,2013-08-20 13:22:00,
2013-08-20 09:27:00,67.6,66.7,29.43,SE,138,0.0,0.0,97,0.00,,,0.01,meteohub,2013-08-20 13:27:00,
2013-08-20 09:32:00,67.6,66.7,29.43,SE,138,0.0,0.0,97,0.00,,,0.01,meteohub,2013-08-20 13:32:00,
2013-08-20 09:37:00,68.0,67.5,29.43,SE,138,0.0,0.0,98,0.00,,,0.01,meteohub,2013-08-20 13:37:00,
2013-08-20 09:42:00,68.2,67.3,29.43,SE,138,0.0,0.0,97,0.00,,,0.01,meteohub,2013-08-20 13:42:00,
2013-08-20 09:47:00,68.4,67.5,29.43,SE,138,0.0,0.0,97,0.00,,,0.01,meteohub,2013-08-20 13:47:00,
2013-08-20 09:52:00,68.5,68.0,29.43,SE,138,0.0,0.0,98,0.00,,,0.01,meteohub,2013-08-20 13:52:00,
2013-08-20 09:57:00,69.1,68.5,29.43,SE,138,0.0,0.0,98,0.00,,,0.01,meteohub,2013-08-20 13:57:00,
2013-08-20 10:02:00,69.4,68.9,29.43,SE,138,0.0,0.0,98,0.00,,,0.01,meteohub,2013-08-20 14:02:00,
2013-08-20 10:07:00,69.6,69.1,29.44,SE,138,0.0,0.0,98,0.00,,,0.01,meteohub,2013-08-20 14:07:00,
2013-08-20 10:12:00,70.0,69.4,29.44,ESE,111,0.0,0.0,98,0.00,,,0.01,meteohub,2013-08-20 14:12:00,
2013-08-20 10:17:00,70.2,69.6,29.44,ESE,111,0.0,0.0,98,0.00,,,0.01,meteohub,2013-08-20 14:17:00,
2013-08-20 10:22:00,70.5,70.0,29.44,SE,146,0.0,0.0,98,0.00,,,0.01,meteohub,2013-08-20 14:22:00,
2013-08-20 10:27:00,71.1,70.5,29.44,SSE,161,0.0,0.0,98,0.00,,,0.01,meteohub,2013-08-20 14:27:00,
2013-08-20 10:32:00,71.2,70.7,29.44,East,98,0.0,1.0,98,0.00,,,0.01,meteohub,2013-08-20 14:32:00,
2013-08-20 10:37:00,71.4,70.5,29.44,SSE,147,0.0,1.0,97,0.00,,,0.01,meteohub,2013-08-20 14:37:00,
2013-08-20 10:42:00,71.8,70.9,29.44,SSW,205,0.0,1.0,97,0.00,,,0.01,meteohub,2013-08-20 14:42:00,
2013-08-20 10:47:00,72.1,71.2,29.44,SSE,164,1.0,1.0,97,0.00,,,0.01,meteohub,2013-08-20 14:47:00,
2013-08-20 10:52:00,72.3,71.4,29.44,ENE,76,0.0,1.0,97,0.00,,,0.01,meteohub,2013-08-20 14:52:00,
2013-08-20 10:57:00,72.5,71.2,29.44,East,90,0.0,1.0,96,0.00,,,0.01,meteohub,2013-08-20 14:57:00,
2013-08-20 11:02:00,72.9,71.6,29.44,SSE,155,0.0,1.0,96,0.00,,,0.01,meteohub,2013-08-20 15:02:00,
2013-08-20 11:07:00,73.6,72.1,29.44,ENE,57,0.0,2.0,95,0.00,,,0.01,meteohub,2013-08-20 15:07:00,
2013-08-20 11:12:00,73.8,72.3,29.44,East,96,0.0,2.0,95,0.00,,,0.01,meteohub,2013-08-20 15:12:00,
2013-08-20 11:17:00,74.1,72.3,29.44,South,189,0.0,2.0,94,0.00,,,0.01,meteohub,2013-08-20 15:17:00,
2013-08-20 11:22:00,74.8,72.7,29.44,SSW,203,0.0,3.0,93,0.00,,,0.01,meteohub,2013-08-20 15:22:00,
2013-08-20 11:27:00,75.4,72.5,29.44,SE,125,0.0,3.0,91,0.00,,,0.01,meteohub,2013-08-20 15:27:00,
2013-08-20 11:32:00,75.7,72.7,29.44,SSW,209,0.0,3.0,90,0.00,,,0.01,meteohub,2013-08-20 15:32:00,
2013-08-20 11:37:00,76.3,72.9,29.43,SSW,210,2.0,3.0,89,0.00,,,0.01,meteohub,2013-08-20 15:37:00,
2013-08-20 11:42:00,76.6,72.5,29.43,SW,214,0.0,3.0,87,0.00,,,0.01,meteohub,2013-08-20 15:42:00,
2013-08-20 11:47:00,77.2,73.0,29.43,ESE,119,0.0,3.0,87,0.00,,,0.01,meteohub,2013-08-20 15:47:00,
2013-08-20 11:52:00,77.5,73.0,29.43,SE,138,0.0,3.0,86,0.00,,,0.01,meteohub,2013-08-20 15:52:00,
2013-08-20 11:57:00,78.1,73.6,29.43,South,188,0.0,2.0,86,0.00,,,0.01,meteohub,2013-08-20 15:57:00,
2013-08-20 12:02:00,78.6,73.4,29.43,SE,138,0.0,0.0,84,0.00,,,0.01,meteohub,2013-08-20 16:02:00,
2013-08-20 12:07:00,79.0,73.4,29.43,ESE,121,0.0,0.0,83,0.00,,,0.01,meteohub,2013-08-20 16:07:00,
2013-08-20 12:12:00,79.3,73.8,29.43,East,85,0.0,0.0,83,0.00,,,0.01,meteohub,2013-08-20 16:12:00,
2013-08-20 12:17:00,79.9,73.9,29.42,South,186,0.0,0.0,82,0.00,,,0.01,meteohub,2013-08-20 16:17:00,
2013-08-20 12:22:00,80.4,74.5,29.42,WNW,282,0.0,0.0,82,0.00,,,0.01,meteohub,2013-08-20 16:22:00,
2013-08-20 12:27:00,81.0,73.8,29.42,SSW,197,0.0,0.0,79,0.00,,,0.01,meteohub,2013-08-20 16:27:00,
2013-08-20 12:32:00,81.3,74.1,29.42,NNE,19,0.0,0.0,79,0.00,,,0.01,meteohub,2013-08-20 16:32:00,
2013-08-20 12:37:00,81.9,73.9,29.42,ENE,58,0.0,0.0,77,0.00,,,0.01,meteohub,2013-08-20 16:37:00,
2013-08-20 12:42:00,82.0,74.1,29.42,ENE,69,0.0,0.0,77,0.00,,,0.01,meteohub,2013-08-20 16:42:00,
2013-08-20 12:47:00,82.2,73.0,29.42,SSE,159,0.0,0.0,74,0.00,,,0.01,meteohub,2013-08-20 16:47:00,
2013-08-20 12:52:00,82.6,73.4,29.42,SSE,155,0.0,3.0,74,0.00,,,0.01,meteohub,2013-08-20 16:52:00,
2013-08-20 12:57:00,82.8,73.9,29.42,SW,225,0.0,3.0,75,0.00,,,0.01,meteohub,2013-08-20 16:57:00,
2013-08-20 13:02:00,82.9,73.4,29.42,SSE,148,0.0,3.0,73,0.00,,,0.01,meteohub,2013-08-20 17:02:00,
2013-08-20 13:07:00,83.1,73.9,29.42,East,100,0.0,2.0,74,0.00,,,0.01,meteohub,2013-08-20 17:07:00,
2013-08-20 13:12:00,83.5,73.9,29.42,East,79,0.0,1.0,73,0.00,,,0.01,meteohub,2013-08-20 17:12:00,
2013-08-20 13:17:00,83.5,73.6,29.42,North,355,0.0,1.0,72,0.00,,,0.01,meteohub,2013-08-20 17:17:00,
2013-08-20 13:22:00,83.7,74.5,29.42,East,91,0.0,1.0,74,0.00,,,0.01,meteohub,2013-08-20 17:22:00,
2013-08-20 13:27:00,83.8,74.7,29.42,SSE,160,0.0,0.0,74,0.00,,,0.01,meteohub,2013-08-20 17:27:00,
2013-08-20 13:32:00,84.2,75.0,29.42,SSE,159,0.0,0.0,74,0.00,,,0.01,meteohub,2013-08-20 17:32:00,
2013-08-20 13:37:00,84.4,73.9,29.42,SE,132,0.0,2.0,71,0.00,,,0.01,meteohub,2013-08-20 17:37:00,
2013-08-20 13:42:00,84.4,73.6,29.42,South,178,0.0,2.0,70,0.00,,,0.01,meteohub,2013-08-20 17:42:00,
2013-08-20 13:47:00,84.4,74.3,29.42,South,184,0.0,3.0,72,0.00,,,0.01,meteohub,2013-08-20 17:47:00,
2013-08-20 13:52:00,84.6,74.1,29.42,SSW,202,0.0,3.0,71,0.00,,,0.01,meteohub,2013-08-20 17:52:00,
2013-08-20 13:57:00,84.6,72.9,29.42,SSW,194,0.0,3.0,68,0.00,,,0.01,meteohub,2013-08-20 17:57:00,
2013-08-20 14:02:00,84.2,72.5,29.42,SSW,195,3.0,4.0,68,0.00,,,0.01,meteohub,2013-08-20 18:02:00,
2013-08-20 14:07:00,84.0,73.2,29.42,South,176,0.0,5.0,70,0.00,,,0.01,meteohub,2013-08-20 18:07:00,
2013-08-20 14:12:00,84.0,72.7,29.42,SW,234,0.0,5.0,69,0.00,,,0.01,meteohub,2013-08-20 18:12:00,
2013-08-20 14:17:00,84.0,73.9,29.42,SSW,212,0.0,5.0,72,0.00,,,0.01,meteohub,2013-08-20 18:17:00,
2013-08-20 14:22:00,84.0,72.3,29.42,SSE,148,0.0,3.0,68,0.00,,,0.01,meteohub,2013-08-20 18:22:00,
2013-08-20 14:27:00,84.0,72.0,29.41,SSW,198,0.0,3.0,67,0.00,,,0.01,meteohub,2013-08-20 18:27:00,
2013-08-20 14:32:00,84.0,73.2,29.41,NW,304,0.0,6.0,70,0.00,,,0.01,meteohub,2013-08-20 18:32:00,
2013-08-20 14:37:00,84.0,71.4,29.41,NNE,27,4.0,6.0,66,0.00,,,0.01,meteohub,2013-08-20 18:37:00,
2013-08-20 14:42:00,84.2,72.5,29.41,ENE,64,0.0,6.0,68,0.00,,,0.01,meteohub,2013-08-20 18:42:00,
2013-08-20 14:47:00,84.4,71.8,29.41,NNE,14,0.0,5.0,66,0.00,,,0.01,meteohub,2013-08-20 18:47:00,
2013-08-20 14:52:00,84.6,72.3,29.41,NNE,14,0.0,5.0,67,0.00,,,0.01,meteohub,2013-08-20 18:52:00,
2013-08-20 14:57:00,84.9,71.4,29.41,NNE,24,0.0,0.0,64,0.00,,,0.01,meteohub,2013-08-20 18:57:00,
2013-08-20 15:02:00,84.9,70.9,29.41,NE,47,0.0,0.0,63,0.00,,,0.01,meteohub,2013-08-20 19:02:00,
2013-08-20 15:07:00,85.1,71.1,29.41,South,176,0.0,1.0,63,0.00,,,0.01,meteohub,2013-08-20 19:07:00,
2013-08-20 15:12:00,85.1,71.1,29.41,West,281,0.0,1.0,63,0.00,,,0.01,meteohub,2013-08-20 19:12:00,
2013-08-20 15:17:00,85.3,71.8,29.40,South,189,0.0,1.0,64,0.00,,,0.01,meteohub,2013-08-20 19:17:00,
2013-08-20 15:22:00,85.1,71.1,29.40,SSE,165,0.0,1.0,63,0.00,,,0.01,meteohub,2013-08-20 19:22:00,
2013-08-20 15:27:00,85.3,70.3,29.40,NNE,15,0.0,0.0,61,0.00,,,0.01,meteohub,2013-08-20 19:27:00,
2013-08-20 15:32:00,85.5,71.4,29.40,NNE,27,0.0,0.0,63,0.00,,,0.01,meteohub,2013-08-20 19:32:00,
2013-08-20 15:37:00,85.6,72.1,29.40,SSW,205,0.0,0.0,64,0.00,,,0.01,meteohub,2013-08-20 19:37:00,
2013-08-20 15:42:00,85.6,71.1,29.40,SSW,194,0.0,0.0,62,0.00,,,0.01,meteohub,2013-08-20 19:42:00,
2013-08-20 15:47:00,85.6,71.1,29.39,South,180,0.0,0.0,62,0.00,,,0.01,meteohub,2013-08-20 19:47:00,
2013-08-20 15:52:00,85.8,71.8,29.39,SE,145,0.0,0.0,63,0.00,,,0.01,meteohub,2013-08-20 19:52:00,
2013-08-20 15:57:00,85.8,71.8,29.39,WSW,250,0.0,0.0,63,0.00,,,0.01,meteohub,2013-08-20 19:57:00,
2013-08-20 16:02:00,85.8,70.9,29.39,SSW,198,2.0,4.0,61,0.00,,,0.01,meteohub,2013-08-20 20:02:00,
2013-08-20 16:07:00,85.6,71.6,29.39,SSW,195,0.0,4.0,63,0.00,,,0.01,meteohub,2013-08-20 20:07:00,
2013-08-20 16:12:00,85.6,71.1,29.39,North,0,0.0,4.0,62,0.00,,,0.01,meteohub,2013-08-20 20:12:00,
2013-08-20 16:17:00,85.6,72.5,29.39,North,0,0.0,2.0,65,0.00,,,0.01,meteohub,2013-08-20 20:17:00,
2013-08-20 16:22:00,85.6,72.1,29.39,North,0,0.0,2.0,64,0.00,,,0.01,meteohub,2013-08-20 20:22:00,
2013-08-20 16:27:00,85.8,71.8,29.39,NNE,22,2.0,2.0,63,0.00,,,0.01,meteohub,2013-08-20 20:27:00,
2013-08-20 16:32:00,85.8,71.2,29.39,NNE,17,0.0,5.0,62,0.00,,,0.01,meteohub,2013-08-20 20:32:00,
2013-08-20 16:37:00,85.8,70.3,29.39,NNW,346,0.0,5.0,60,0.00,,,0.01,meteohub,2013-08-20 20:37:00,
2013-08-20 16:42:00,86.0,71.4,29.38,NNW,346,0.0,5.0,62,0.00,,,0.01,meteohub,2013-08-20 20:42:00,
2013-08-20 16:47:00,86.0,70.5,29.38,WNW,296,0.0,1.0,60,0.00,,,0.01,meteohub,2013-08-20 20:47:00,
2013-08-20 16:52:00,86.0,71.1,29.39,NNW,331,0.0,0.0,61,0.00,,,0.01,meteohub,2013-08-20 20:52:00,
2013-08-20 16:57:00,86.0,71.4,29.39,NNW,336,0.0,1.0,62,0.00,,,0.01,meteohub,2013-08-20 20:57:00,
2013-08-20 17:02:00,85.8,69.8,29.39,NNW,327,0.0,1.0,59,0.00,,,0.01,meteohub,2013-08-20 21:02:00,
2013-08-20 17:07:00,85.8,70.9,29.39,NNW,327,0.0,1.0,61,0.00,,,0.01,meteohub,2013-08-20 21:07:00,
2013-08-20 17:12:00,85.3,68.9,29.39,South,189,0.0,1.0,58,0.00,,,0.01,meteohub,2013-08-20 21:12:00,
2013-08-20 17:17:00,85.1,69.1,29.39,WNW,303,0.0,1.0,59,0.00,,,0.01,meteohub,2013-08-20 21:17:00,
2013-08-20 17:22:00,84.9,70.0,29.39,WNW,303,0.0,1.0,61,0.00,,,0.01,meteohub,2013-08-20 21:22:00,
2013-08-20 17:27:00,84.9,70.0,29.39,WSW,244,0.0,1.0,61,0.00,,,0.01,meteohub,2013-08-20 21:27:00,
2013-08-20 17:32:00,84.9,68.9,29.39,WSW,244,0.0,2.0,59,0.00,,,0.01,meteohub,2013-08-20 21:32:00,
2013-08-20 17:37:00,84.9,68.9,29.39,SSW,204,0.0,2.0,59,0.00,,,0.01,meteohub,2013-08-20 21:37:00,
2013-08-20 17:42:00,84.9,68.9,29.39,WSW,238,0.0,2.0,59,0.00,,,0.01,meteohub,2013-08-20 21:42:00,
2013-08-20 17:47:00,85.1,69.6,29.39,WSW,238,0.0,1.0,60,0.00,,,0.01,meteohub,2013-08-20 21:47:00,
2013-08-20 17:52:00,85.3,70.3,29.39,WSW,238,0.0,1.0,61,0.00,,,0.01,meteohub,2013-08-20 21:52:00,
2013-08-20 17:57:00,85.3,69.8,29.39,WSW,238,0.0,0.0,60,0.00,,,0.01,meteohub,2013-08-20 21:57:00,
2013-08-20 18:02:00,85.3,69.3,29.39,WSW,238,0.0,0.0,59,0.00,,,0.01,meteohub,2013-08-20 22:02:00,
2013-08-20 18:07:00,85.5,70.0,29.39,WSW,238,0.0,0.0,60,0.00,,,0.01,meteohub,2013-08-20 22:07:00,
2013-08-20 18:12:00,85.5,70.5,29.39,WSW,238,0.0,0.0,61,0.00,,,0.01,meteohub,2013-08-20 22:12:00,
2013-08-20 18:17:00,85.5,70.5,29.39,WSW,238,0.0,0.0,61,0.00,,,0.01,meteohub,2013-08-20 22:17:00,
2013-08-20 18:22:00,85.5,70.5,29.39,WSW,238,0.0,0.0,61,0.00,,,0.01,meteohub,2013-08-20 22:22:00,
2013-08-20 18:27:00,85.3,70.7,29.39,WSW,238,0.0,0.0,62,0.00,,,0.01,meteohub,2013-08-20 22:27:00,
2013-08-20 18:32:00,85.1,70.5,29.39,WSW,238,0.0,0.0,62,0.00,,,0.01,meteohub,2013-08-20 22:32:00,
2013-08-20 18:37:00,84.7,69.8,29.39,WSW,238,0.0,0.0,61,0.00,,,0.01,meteohub,2013-08-20 22:37:00,
2013-08-20 18:42:00,84.6,70.2,29.39,WSW,238,0.0,0.0,62,0.00,,,0.01,meteohub,2013-08-20 22:42:00,
2013-08-20 18:47:00,84.0,70.0,29.39,WSW,238,0.0,0.0,63,0.00,,,0.01,meteohub,2013-08-20 22:47:00,
2013-08-20 18:52:00,83.7,69.8,29.39,WSW,238,0.0,0.0,63,0.00,,,0.01,meteohub,2013-08-20 22:52:00,
2013-08-20 18:57:00,82.9,69.4,29.39,WSW,238,0.0,0.0,64,0.00,,,0.01,meteohub,2013-08-20 22:57:00,
2013-08-20 19:02:00,82.6,69.6,29.39,WSW,238,0.0,0.0,65,0.00,,,0.01,meteohub,2013-08-20 23:02:00,
2013-08-20 19:07:00,81.9,69.4,29.39,WSW,238,0.0,0.0,66,0.00,,,0.01,meteohub,2013-08-20 23:07:00,
2013-08-20 19:12:00,81.3,68.9,29.39,WSW,238,0.0,0.0,66,0.00,,,0.01,meteohub,2013-08-20 23:12:00,
2013-08-20 19:17:00,80.8,68.7,29.39,WSW,238,0.0,0.0,67,0.00,,,0.01,meteohub,2013-08-20 23:17:00,
2013-08-20 19:22:00,80.2,68.7,29.39,WSW,238,0.0,0.0,68,0.00,,,0.01,meteohub,2013-08-20 23:22:00,
2013-08-20 19:27:00,79.9,68.7,29.39,WSW,238,0.0,0.0,69,0.00,,,0.01,meteohub,2013-08-20 23:27:00,
2013-08-20 19:32:00,79.3,68.4,29.39,WSW,238,0.0,0.0,69,0.00,,,0.01,meteohub,2013-08-20 23:32:00,
2013-08-20 19:37:00,78.6,68.0,29.40,WSW,238,0.0,0.0,70,0.00,,,0.01,meteohub,2013-08-20 23:37:00,
2013-08-20 19:42:00,78.3,67.6,29.40,WSW,238,0.0,0.0,70,0.00,,,0.01,meteohub,2013-08-20 23:42:00,
2013-08-20 19:47:00,77.7,67.6,29.40,WSW,238,0.0,0.0,71,0.00,,,0.01,meteohub,2013-08-20 23:47:00,
2013-08-20 19:52:00,77.2,67.5,29.40,WSW,238,0.0,0.0,72,0.00,,,0.01,meteohub,2013-08-20 23:52:00,
2013-08-20 19:57:00,76.6,66.9,29.40,WSW,238,0.0,0.0,72,0.00,,,0.01,meteohub,2013-08-20 23:57:00,
2013-08-20 20:02:00,76.3,66.9,29.39,WSW,238,0.0,0.0,73,0.00,,,0.01,meteohub,2013-08-21 00:02:00,
2013-08-20 20:07:00,75.7,66.4,29.40,WSW,238,0.0,0.0,73,0.00,,,0.01,meteohub,2013-08-21 00:07:00,
2013-08-20 20:12:00,75.4,66.6,29.40,WSW,238,0.0,0.0,74,0.00,,,0.01,meteohub,2013-08-21 00:12:00,
2013-08-20 20:17:00,74.8,66.0,29.40,WSW,238,0.0,0.0,74,0.00,,,0.01,meteohub,2013-08-21 00:17:00,
2013-08-20 20:22:00,74.5,65.7,29.40,WSW,238,0.0,0.0,74,0.00,,,0.01,meteohub,2013-08-21 00:22:00,
2013-08-20 20:27:00,73.9,65.5,29.40,WSW,238,0.0,0.0,75,0.00,,,0.01,meteohub,2013-08-21 00:27:00,
2013-08-20 20:32:00,73.6,65.5,29.41,WSW,238,0.0,0.0,76,0.00,,,0.01,meteohub,2013-08-21 00:32:00,
2013-08-20 20:37:00,73.0,64.9,29.41,WSW,238,0.0,0.0,76,0.00,,,0.01,meteohub,2013-08-21 00:37:00,
2013-08-20 20:42:00,72.7,64.8,29.41,WSW,238,0.0,0.0,76,0.00,,,0.01,meteohub,2013-08-21 00:42:00,
2013-08-20 20:47:00,72.1,64.6,29.41,WSW,238,0.0,0.0,77,0.00,,,0.01,meteohub,2013-08-21 00:47:00,
2013-08-20 20:52:00,71.8,64.2,29.42,WSW,238,0.0,0.0,77,0.00,,,0.01,meteohub,2013-08-21 00:52:00,
2013-08-20 20:57:00,71.4,64.2,29.42,WSW,238,0.0,0.0,78,0.00,,,0.01,meteohub,2013-08-21 00:57:00,
2013-08-20 21:02:00,71.2,64.0,29.42,WSW,238,0.0,0.0,78,0.00,,,0.01,meteohub,2013-08-21 01:02:00,
2013-08-20 21:07:00,70.9,63.7,29.42,WSW,238,0.0,0.0,78,0.00,,,0.01,meteohub,2013-08-21 01:07:00,
2013-08-20 21:12:00,70.5,63.7,29.42,WSW,238,0.0,0.0,79,0.00,,,0.01,meteohub,2013-08-21 01:12:00,
2013-08-20 21:17:00,70.2,63.3,29.42,WSW,238,0.0,0.0,79,0.00,,,0.01,meteohub,2013-08-21 01:17:00,
2013-08-20 21:19:00,70.0,63.1,29.42,WSW,238,0.0,0.0,79,0.00,,,0.01,meteohub,2013-08-21 01:19:00,
2013-08-20 21:24:00,69.6,63.1,29.42,WSW,238,0.0,0.0,80,0.00,,,0.01,meteohub,2013-08-21 01:24:00,
2013-08-20 21:29:00,69.6,63.9,29.42,WSW,238,0.0,0.0,82,0.00,,,0.01,meteohub,2013-08-21 01:29:00,
2013-08-20 21:34:00,69.4,63.7,29.43,WSW,238,0.0,0.0,82,0.00,,,0.01,meteohub,2013-08-21 01:34:00,
2013-08-20 21:39:00,69.3,63.9,29.43,WSW,238,0.0,0.0,83,0.00,,,0.01,meteohub,2013-08-21 01:39:00,
2013-08-20 21:44:00,69.1,64.0,29.43,WSW,238,0.0,0.0,84,0.00,,,0.01,meteohub,2013-08-21 01:44:00,
2013-08-20 21:49:00,69.1,64.0,29.43,WSW,238,0.0,0.0,84,0.00,,,0.01,meteohub,2013-08-21 01:49:00,
2013-08-20 21:55:00,68.7,64.0,29.43,WSW,238,0.0,0.0,85,0.00,,,0.01,meteohub,2013-08-21 01:55:00,
2013-08-20 22:00:00,68.7,64.4,29.43,WSW,238,0.0,0.0,86,0.00,,,0.01,meteohub,2013-08-21 02:00:00,
2013-08-20 22:05:00,68.5,64.2,29.44,WSW,238,0.0,0.0,86,0.00,,,0.01,meteohub,2013-08-21 02:05:00,
2013-08-20 22:10:00,68.5,64.2,29.44,WSW,238,0.0,0.0,86,0.00,,,0.01,meteohub,2013-08-21 02:10:00,
2013-08-20 22:15:00,68.4,64.0,29.44,WSW,238,0.0,0.0,86,0.00,,,0.01,meteohub,2013-08-21 02:15:00,
2013-08-20 22:20:00,68.2,64.2,29.43,WSW,238,0.0,0.0,87,0.00,,,0.01,meteohub,2013-08-21 02:20:00,
2013-08-20 22:25:00,68.2,64.2,29.43,WSW,238,0.0,0.0,87,0.00,,,0.01,meteohub,2013-08-21 02:25:00,
2013-08-20 22:30:00,68.2,64.4,29.43,WSW,238,0.0,0.0,88,0.00,,,0.01,meteohub,2013-08-21 02:30:00,
2013-08-20 22:35:00,68.2,64.4,29.44,WSW,238,0.0,0.0,88,0.00,,,0.01,meteohub,2013-08-21 02:35:00,
2013-08-20 22:40:00,68.2,64.4,29.43,WSW,238,0.0,0.0,88,0.00,,,0.01,meteohub,2013-08-21 02:40:00,
2013-08-20 22:45:00,68.2,64.8,29.43,WSW,238,0.0,0.0,89,0.00,,,0.01,meteohub,2013-08-21 02:45:00,
2013-08-20 22:50:00,68.2,64.8,29.43,WSW,238,0.0,0.0,89,0.00,,,0.01,meteohub,2013-08-21 02:50:00,
2013-08-20 22:55:00,68.4,65.3,29.43,WSW,238,0.0,0.0,90,0.00,,,0.01,meteohub,2013-08-21 02:55:00,
2013-08-20 23:00:00,68.4,65.3,29.43,WSW,238,0.0,0.0,90,0.00,,,0.01,meteohub,2013-08-21 03:00:00,
2013-08-20 23:05:00,68.4,65.7,29.43,WSW,238,0.0,0.0,91,0.00,,,0.01,meteohub,2013-08-21 03:05:00,
2013-08-20 23:10:00,68.4,65.7,29.43,WSW,238,0.0,0.0,91,0.00,,,0.01,meteohub,2013-08-21 03:10:00,
2013-08-20 23:15:00,68.4,65.7,29.44,WSW,238,0.0,0.0,91,0.00,,,0.01,meteohub,2013-08-21 03:15:00,
2013-08-20 23:20:00,68.2,65.5,29.44,WSW,238,0.0,0.0,91,0.00,,,0.01,meteohub,2013-08-21 03:20:00,
2013-08-20 23:25:00,68.2,65.5,29.43,WSW,238,0.0,0.0,91,0.00,,,0.01,meteohub,2013-08-21 03:25:00,
2013-08-20 23:30:00,68.2,65.5,29.43,WSW,238,0.0,0.0,91,0.00,,,0.01,meteohub,2013-08-21 03:30:00,
2013-08-20 23:35:00,68.0,65.3,29.43,WSW,238,0.0,0.0,91,0.00,,,0.01,meteohub,2013-08-21 03:35:00,
2013-08-20 23:40:00,68.0,65.3,29.43,WSW,238,0.0,0.0,91,0.00,,,0.01,meteohub,2013-08-21 03:40:00,
2013-08-20 23:45:00,68.0,65.3,29.43,WSW,238,0.0,0.0,91,0.00,,,0.01,meteohub,2013-08-21 03:45:00,
2013-08-20 23:50:00,68.2,65.8,29.43,WSW,238,0.0,0.0,92,0.00,,,0.01,meteohub,2013-08-21 03:50:00,
2013-08-20 23:55:00,68.0,65.7,29.43,WSW,238,0.0,0.0,92,0.00,,,0.01,meteohub,2013-08-21 03:55:00,